createdAt,value
2017-11-05T13:54:22.357Z,10.98
2017-11-05T13:55:26.705Z,10.90
2017-11-05T13:56:31.027Z,10.91
2017-11-05T13:57:34.716Z,10.98
2017-11-05T13:58:39.803Z,10.94
2017-11-05T13:59:44.323Z,10.95
2017-11-05T14:00:49.946Z,10.88
2017-11-05T14:01:52.849Z,10.90
2017-11-05T14:02:56.409Z,10.84
2017-11-05T14:03:59.396Z,10.88
2017-11-05T14:05:02.244Z,10.98
2017-11-05T14:06:05.215Z,10.90
2017-11-05T14:07:08.276Z,10.93
2017-11-05T14:08:11.131Z,10.95
2017-11-05T14:09:15.540Z,10.98
2017-11-05T14:10:19.274Z,10.98
2017-11-05T14:11:22.972Z,10.99
2017-11-05T14:12:25.859Z,11.02
2017-11-05T14:13:29.065Z,10.95
2017-11-05T14:14:32.007Z,10.94
2017-11-05T14:15:35.087Z,10.95
2017-11-05T14:16:38.025Z,11.01
2017-11-05T14:17:40.871Z,11.03
2017-11-05T14:18:44.217Z,10.99
2017-11-05T14:19:47.163Z,10.93
2017-11-05T14:20:50.103Z,11.09
2017-11-05T14:21:53.360Z,11.08
2017-11-05T14:22:56.422Z,11.08
2017-11-05T14:23:59.586Z,11.03
2017-11-05T14:25:01.861Z,11.05
2017-11-05T14:26:04.925Z,11.13
2017-11-05T14:27:08.276Z,11.09
2017-11-05T14:28:11.369Z,11.21
2017-11-05T14:29:15.220Z,11.23
2017-11-05T14:30:18.454Z,11.13
2017-11-05T14:31:21.406Z,11.16
2017-11-05T14:32:24.679Z,11.13
2017-11-05T14:33:27.909Z,11.12
2017-11-05T14:34:31.048Z,11.16
2017-11-05T14:35:34.959Z,11.17
2017-11-05T14:36:37.859Z,11.23
2017-11-05T14:37:42.201Z,11.21
2017-11-05T14:38:44.858Z,11.16
2017-11-05T14:39:47.618Z,11.23
2017-11-05T14:40:50.734Z,11.19
2017-11-05T14:41:55.719Z,11.30
2017-11-05T14:43:00.432Z,11.27
2017-11-05T14:44:02.610Z,11.19
2017-11-05T14:45:05.090Z,11.26
2017-11-05T14:46:07.973Z,11.30
2017-11-05T14:47:10.884Z,11.16
2017-11-05T14:48:13.376Z,11.13
2017-11-05T14:49:16.316Z,11.23
2017-11-05T14:50:19.466Z,11.20
2017-11-05T14:51:24.177Z,11.19
2017-11-05T14:52:28.507Z,11.08
2017-11-05T14:53:31.363Z,11.08
2017-11-05T14:54:34.234Z,11.16
2017-11-05T14:55:37.115Z,11.08
2017-11-05T14:56:40.011Z,11.11
2017-11-05T14:57:43.035Z,11.12
2017-11-05T14:58:45.935Z,11.13
2017-11-05T14:59:49.113Z,11.13
2017-11-05T15:00:52.040Z,11.11
2017-11-05T15:01:54.844Z,11.16
2017-11-05T15:02:57.724Z,11.16
2017-11-05T15:04:00.727Z,11.17
2017-11-05T15:05:03.914Z,11.19
2017-11-05T15:06:07.061Z,11.06
2017-11-05T15:07:10.248Z,11.13
2017-11-05T15:08:13.485Z,11.03
2017-11-05T15:09:16.295Z,11.12
2017-11-05T15:10:19.167Z,11.16
2017-11-05T15:11:22.033Z,11.12
2017-11-05T15:12:24.176Z,11.19
2017-11-05T15:13:26.319Z,11.08
2017-11-05T15:14:29.163Z,11.08
2017-11-05T15:15:32.206Z,11.09
2017-11-05T15:16:35.107Z,11.05
2017-11-05T15:17:37.970Z,10.94
2017-11-05T15:18:40.910Z,10.95
2017-11-05T15:19:43.733Z,11.06
2017-11-05T15:20:46.559Z,10.98
2017-11-05T15:21:49.421Z,11.01
2017-11-05T15:22:52.263Z,11.01
2017-11-05T15:23:55.069Z,10.99
2017-11-05T15:24:57.944Z,10.98
2017-11-05T15:26:00.799Z,10.88
2017-11-05T15:27:03.734Z,10.98
2017-11-05T15:28:06.731Z,10.95
2017-11-05T15:29:08.821Z,10.86
2017-11-05T15:30:11.758Z,10.91
2017-11-05T15:31:14.609Z,10.90
2017-11-05T15:32:17.619Z,10.91
2017-11-05T15:33:20.768Z,10.91
2017-11-05T15:34:23.695Z,10.94
2017-11-05T15:35:26.513Z,10.93
2017-11-05T15:36:29.662Z,10.95
2017-11-05T15:37:32.439Z,10.93
2017-11-05T15:38:35.325Z,10.90
2017-11-05T15:39:38.200Z,10.83
2017-11-05T15:40:41.385Z,10.88
2017-11-05T15:41:44.493Z,10.80
2017-11-05T15:42:47.347Z,10.76
2017-11-05T15:46:37.695Z,10.69
2017-11-05T15:47:40.683Z,10.68
2017-11-05T15:48:43.939Z,10.66
2017-11-05T15:49:46.796Z,10.68
2017-11-05T15:50:49.665Z,10.65
2017-11-05T15:51:52.749Z,10.65
2017-11-05T15:52:55.647Z,10.65
2017-11-05T15:53:58.913Z,10.65
2017-11-05T15:55:01.863Z,10.58
2017-11-05T15:56:04.699Z,10.52
2017-11-05T15:57:07.562Z,10.54
2017-11-05T15:58:10.430Z,10.62
2017-11-05T15:59:13.456Z,10.54
2017-11-05T16:00:16.368Z,10.46
2017-11-05T16:01:19.213Z,10.52
2017-11-05T16:02:22.091Z,10.54
2017-11-05T16:03:25.201Z,10.49
2017-11-05T16:04:28.058Z,10.54
2017-11-05T16:05:30.953Z,10.47
2017-11-05T16:06:33.806Z,10.51
2017-11-05T16:07:36.601Z,10.51
2017-11-05T16:08:39.405Z,10.57
2017-11-05T16:09:42.250Z,10.49
2017-11-05T16:10:45.070Z,10.46
2017-11-05T16:11:47.935Z,10.58
2017-11-05T16:12:50.794Z,10.49
2017-11-05T16:13:53.567Z,10.52
2017-11-05T16:14:57.165Z,10.38
2017-11-05T16:16:00.147Z,10.46
2017-11-05T16:17:02.225Z,10.43
2017-11-05T16:18:05.501Z,10.52
2017-11-05T16:19:08.459Z,10.52
2017-11-05T16:20:11.623Z,10.51
2017-11-05T16:21:14.408Z,10.52
2017-11-05T16:22:17.160Z,10.51
2017-11-05T16:23:19.964Z,10.54
2017-11-05T16:24:22.783Z,10.52
2017-11-05T16:25:25.529Z,10.57
2017-11-05T16:26:28.621Z,10.44
2017-11-05T16:27:31.403Z,10.52
2017-11-05T16:28:34.318Z,10.49
2017-11-05T16:29:37.103Z,10.42
2017-11-05T16:30:40.293Z,10.34
2017-11-05T16:31:43.136Z,10.39
2017-11-05T16:32:46.027Z,10.39
2017-11-05T16:33:49.402Z,10.46
2017-11-05T16:34:52.375Z,10.47
2017-11-05T16:35:55.216Z,10.36
2017-11-05T16:36:58.352Z,10.31
2017-11-05T16:38:00.909Z,10.31
2017-11-05T16:39:03.817Z,10.34
2017-11-05T16:40:07.184Z,10.31
2017-11-05T16:41:10.768Z,10.31
2017-11-05T16:42:13.703Z,10.34
2017-11-05T16:43:16.690Z,10.31
2017-11-05T16:44:19.701Z,10.31
2017-11-05T16:45:23.027Z,10.34
2017-11-05T16:46:26.687Z,10.26
2017-11-05T16:47:29.852Z,10.22
2017-11-05T16:48:34.127Z,10.20
2017-11-05T16:49:37.073Z,10.20
2017-11-05T16:50:39.637Z,10.11
2017-11-05T16:51:42.627Z,10.13
2017-11-05T16:52:45.497Z,10.13
2017-11-05T16:53:48.323Z,10.18
2017-11-05T16:54:51.121Z,10.09
2017-11-05T16:55:54.411Z,10.09
2017-11-05T16:56:57.449Z,10.13
2017-11-05T16:58:00.378Z,10.16
